createdAt,value
2018-07-01T00:01:12.664Z,99.90
2018-07-01T00:03:42.577Z,99.90
2018-07-01T00:06:11.792Z,99.90
2018-07-01T00:08:41.088Z,99.90
2018-07-01T00:11:10.500Z,99.90
2018-07-01T00:13:39.836Z,99.90
2018-07-01T00:16:09.166Z,99.90
2018-07-01T00:18:38.744Z,99.90
2018-07-01T00:23:36.800Z,99.90
2018-07-01T00:26:06.345Z,99.90
2018-07-01T00:28:35.468Z,99.90
2018-07-01T00:31:04.595Z,99.90
2018-07-01T00:33:34.277Z,99.90
2018-07-01T00:36:03.669Z,99.90
2018-07-01T00:38:32.830Z,99.90
2018-07-01T00:41:02.386Z,99.90
2018-07-01T00:43:31.817Z,99.90
2018-07-01T00:46:00.946Z,99.90
2018-07-01T00:48:30.642Z,99.90
2018-07-01T00:50:59.756Z,99.90
2018-07-01T00:53:29.195Z,99.90
2018-07-01T00:55:58.346Z,99.90
2018-07-01T01:03:25.382Z,99.90
2018-07-01T01:05:54.564Z,99.90
2018-07-01T01:10:52.912Z,99.90
2018-07-01T01:13:22.090Z,99.90
2018-07-01T01:15:51.688Z,99.90
2018-07-01T01:18:20.841Z,99.90
2018-07-01T01:20:57.392Z,99.90
2018-07-01T01:23:26.522Z,99.90
2018-07-01T01:25:56.041Z,99.90
2018-07-01T01:28:25.561Z,99.90
2018-07-01T01:30:54.676Z,99.90
2018-07-01T01:33:23.837Z,99.90
2018-07-01T01:35:53.261Z,99.90
2018-07-01T01:38:23.670Z,99.90
2018-07-01T01:41:00.741Z,99.90
2018-07-01T01:43:36.387Z,99.90
2018-07-01T01:46:12.956Z,99.90
2018-07-01T01:49:47.417Z,99.90
2018-07-01T01:52:24.656Z,99.90
2018-07-01T01:57:02.039Z,99.90
2018-07-01T01:59:39.496Z,99.90
2018-07-01T02:02:14.397Z,99.90
2018-07-01T02:05:01.707Z,99.90
2018-07-01T02:08:04.821Z,99.90
2018-07-01T02:10:33.927Z,99.90
2018-07-01T02:13:04.943Z,99.90
2018-07-01T02:15:41.111Z,99.90
2018-07-01T02:18:10.653Z,99.90
2018-07-01T02:20:41.385Z,99.90
2018-07-01T02:23:15.330Z,99.90
2018-07-01T02:25:44.952Z,99.90
2018-07-01T02:28:14.291Z,99.90
2018-07-01T02:30:43.510Z,99.90
2018-07-01T02:33:13.215Z,99.90
2018-07-01T02:35:42.542Z,99.90
2018-07-01T02:38:12.031Z,99.90
2018-07-01T02:40:41.278Z,99.90
2018-07-01T02:43:10.982Z,99.90
2018-07-01T02:45:40.221Z,99.90
2018-07-01T02:48:09.458Z,99.90
2018-07-01T02:50:39.167Z,99.90
2018-07-01T02:53:08.698Z,99.90
2018-07-01T02:55:38.285Z,99.90
2018-07-01T02:58:08.027Z,99.90
2018-07-01T03:00:37.462Z,99.90
2018-07-01T03:03:07.017Z,99.90
2018-07-01T03:05:36.465Z,99.90
2018-07-01T03:08:06.214Z,99.90
2018-07-01T03:10:35.908Z,99.90
2018-07-01T03:13:05.614Z,99.90
2018-07-01T03:15:35.386Z,99.90
2018-07-01T03:18:04.935Z,99.90
2018-07-01T03:20:34.213Z,99.90
2018-07-01T03:23:03.475Z,99.90
2018-07-01T03:25:33.150Z,99.90
2018-07-01T03:28:02.605Z,99.90
2018-07-01T03:30:31.872Z,99.90
2018-07-01T03:33:01.081Z,99.90
2018-07-01T03:35:30.756Z,99.90
2018-07-01T03:37:59.982Z,99.90
2018-07-01T03:40:29.229Z,99.90
2018-07-01T03:42:58.925Z,99.90
2018-07-01T03:45:28.325Z,99.90
2018-07-01T03:47:57.677Z,99.90
2018-07-01T03:50:26.957Z,99.90
2018-07-01T03:52:57.090Z,99.90
2018-07-01T03:55:26.297Z,99.90
2018-07-01T03:57:55.584Z,99.90
2018-07-01T04:00:24.869Z,99.90
2018-07-01T04:02:54.470Z,99.90
2018-07-01T04:05:24.480Z,99.90
2018-07-01T04:07:53.773Z,99.90
2018-07-01T04:10:23.489Z,99.90
2018-07-01T04:12:52.763Z,99.90
2018-07-01T04:15:22.034Z,99.90
2018-07-01T04:17:51.915Z,99.90
2018-07-01T04:20:21.319Z,99.90
2018-07-01T04:22:50.590Z,99.90
2018-07-01T04:25:20.318Z,99.90
2018-07-01T04:27:49.621Z,99.90
2018-07-01T04:30:19.050Z,99.90
2018-07-01T04:32:48.984Z,99.90
2018-07-01T04:35:18.345Z,99.90
2018-07-01T04:37:47.562Z,99.90
2018-07-01T04:40:17.108Z,99.90
2018-07-01T04:42:46.650Z,99.90
2018-07-01T04:45:15.902Z,99.90
2018-07-01T04:47:45.649Z,99.90
2018-07-01T04:50:15.834Z,99.90
2018-07-01T04:52:45.055Z,99.90
2018-07-01T04:55:14.791Z,99.90
2018-07-01T04:57:44.019Z,99.90
2018-07-01T05:00:13.555Z,99.90
2018-07-01T05:02:43.242Z,99.90
2018-07-01T05:05:12.651Z,99.90
2018-07-01T05:07:41.953Z,99.90
2018-07-01T05:10:11.594Z,99.90
2018-07-01T05:12:41.078Z,99.90
2018-07-01T05:15:10.307Z,99.90
2018-07-01T05:17:39.910Z,99.90
2018-07-01T05:20:09.135Z,99.90
2018-07-01T05:22:38.441Z,99.90
2018-07-01T05:25:08.203Z,99.90
2018-07-01T05:27:37.711Z,99.90
2018-07-01T05:30:06.930Z,99.90
2018-07-01T05:32:36.553Z,99.90
2018-07-01T05:35:05.786Z,99.90
2018-07-01T05:37:35.114Z,99.90
2018-07-01T05:40:05.188Z,99.90
2018-07-01T05:42:34.462Z,99.90
2018-07-01T05:45:04.393Z,99.90
2018-07-01T05:50:03.322Z,99.90
2018-07-01T05:52:32.679Z,99.90
2018-07-01T05:55:02.353Z,99.90
2018-07-01T05:57:31.838Z,99.90
2018-07-01T06:00:01.128Z,99.90
2018-07-01T06:02:46.219Z,99.90
2018-07-01T06:05:15.660Z,99.90
2018-07-01T06:07:46.288Z,99.90
2018-07-01T06:10:15.923Z,99.90
2018-07-01T06:12:45.214Z,99.90
2018-07-01T06:15:15.225Z,99.90
2018-07-01T06:17:44.756Z,99.90
2018-07-01T06:20:14.108Z,99.90
2018-07-01T06:22:44.252Z,99.90
2018-07-01T06:25:13.505Z,99.90
2018-07-01T06:27:42.792Z,99.90
2018-07-01T06:30:12.745Z,99.90
2018-07-01T06:32:42.445Z,99.90
2018-07-01T06:35:12.613Z,99.90
2018-07-01T06:37:42.838Z,99.90
2018-07-01T06:40:12.170Z,99.90
2018-07-01T06:42:41.717Z,99.90
2018-07-01T06:45:11.307Z,99.90
2018-07-01T06:47:40.537Z,99.90
2018-07-01T06:50:09.743Z,99.90
2018-07-01T06:52:39.584Z,99.90
2018-07-01T06:55:08.884Z,99.90
2018-07-01T06:57:38.196Z,99.90
2018-07-01T07:00:09.574Z,99.90
2018-07-01T07:02:39.002Z,99.90
2018-07-01T07:05:09.322Z,99.90
2018-07-01T07:07:39.028Z,99.90
2018-07-01T07:10:08.577Z,99.90
2018-07-01T07:12:40.309Z,99.90
2018-07-01T07:15:09.389Z,99.90
2018-07-01T07:17:38.533Z,99.90
2018-07-01T07:20:10.337Z,95.40
2018-07-01T07:22:40.298Z,99.90
2018-07-01T07:25:11.577Z,98.70
2018-07-01T07:27:41.284Z,96.70
2018-07-01T07:30:11.124Z,98.00
2018-07-01T07:32:41.373Z,99.60
2018-07-01T07:35:10.896Z,97.30
2018-07-01T07:37:47.241Z,98.90
2018-07-01T07:40:16.579Z,99.90
2018-07-01T07:42:45.825Z,99.90
2018-07-01T07:45:19.599Z,99.90
2018-07-01T07:47:57.789Z,99.70
2018-07-01T07:50:27.889Z,99.90
2018-07-01T07:52:58.481Z,98.00
2018-07-01T07:55:28.919Z,98.30
2018-07-01T07:57:59.715Z,93.70
2018-07-01T08:00:31.293Z,94.70
2018-07-01T08:03:00.864Z,96.30
2018-07-01T08:05:30.404Z,95.00
2018-07-01T08:08:01.951Z,92.40
2018-07-01T08:10:32.965Z,92.90
2018-07-01T08:13:02.311Z,92.60
2018-07-01T08:15:31.618Z,94.30
2018-07-01T08:18:01.450Z,94.80
2018-07-01T08:20:30.865Z,92.60
2018-07-01T08:23:20.655Z,92.30
2018-07-01T08:28:23.300Z,93.70
2018-07-01T08:30:52.930Z,93.20
2018-07-01T08:33:28.983Z,94.30
2018-07-01T08:35:59.981Z,92.40
2018-07-01T08:38:32.406Z,94.90
2018-07-01T08:41:00.729Z,95.50
2018-07-01T08:43:29.613Z,94.50
2018-07-01T08:45:58.107Z,92.80
2018-07-01T08:48:26.518Z,94.00
2018-07-01T08:50:56.115Z,94.50
2018-07-01T08:53:27.598Z,92.60
2018-07-01T08:58:24.358Z,93.10
2018-07-01T09:00:53.451Z,92.40
2018-07-01T09:03:21.836Z,93.90
2018-07-01T09:05:50.668Z,92.40
2018-07-01T09:08:19.369Z,91.60
2018-07-01T09:13:28.668Z,93.60
2018-07-01T09:15:57.149Z,93.90
2018-07-01T09:18:25.547Z,94.50
2018-07-01T09:20:54.009Z,94.40
2018-07-01T09:23:22.945Z,94.50
2018-07-01T09:25:51.661Z,95.10
2018-07-01T09:30:48.832Z,94.40
2018-07-01T09:33:17.670Z,95.00
2018-07-01T09:35:46.167Z,98.00
2018-07-01T09:38:14.561Z,93.10
2018-07-01T09:40:44.245Z,95.20
2018-07-01T09:43:12.596Z,94.60
2018-07-01T09:45:41.313Z,93.50
2018-07-01T09:48:10.681Z,92.90
2018-07-01T09:50:40.281Z,93.80
2018-07-01T09:53:08.820Z,94.60
2018-07-01T09:55:37.992Z,93.20
2018-07-01T09:58:07.225Z,92.40
2018-07-01T10:00:36.608Z,92.40
2018-07-01T10:03:06.595Z,91.00
2018-07-01T10:05:36.007Z,91.40
2018-07-01T10:08:12.167Z,92.00
2018-07-01T10:10:44.612Z,95.40
2018-07-01T10:13:21.667Z,93.10
2018-07-01T10:15:51.860Z,92.70
2018-07-01T10:18:23.610Z,93.40
2018-07-01T10:20:54.822Z,93.10
2018-07-01T10:23:25.059Z,94.00
2018-07-01T10:25:54.905Z,93.60
2018-07-01T10:28:25.079Z,93.10
2018-07-01T10:30:53.598Z,93.50
2018-07-01T10:33:22.448Z,92.20
2018-07-01T10:35:51.834Z,93.50
2018-07-01T10:38:21.514Z,93.50
2018-07-01T10:40:50.440Z,92.50
2018-07-01T10:43:19.118Z,91.50
2018-07-01T10:45:47.908Z,91.70
2018-07-01T10:48:16.384Z,92.70
2018-07-01T10:50:45.112Z,92.10
2018-07-01T10:53:13.838Z,91.00
2018-07-01T10:55:42.264Z,91.00
2018-07-01T10:58:11.127Z,92.20
2018-07-01T11:00:39.508Z,91.90
2018-07-01T11:03:08.283Z,91.30
2018-07-01T11:08:07.736Z,90.70
2018-07-01T11:10:36.072Z,90.00
2018-07-01T11:13:05.261Z,89.90
2018-07-01T11:15:33.636Z,91.10
2018-07-01T11:18:02.019Z,88.60
2018-07-01T11:20:32.694Z,89.50
2018-07-01T11:23:01.146Z,89.70
2018-07-01T11:25:29.562Z,90.10
2018-07-01T11:27:58.296Z,91.20
2018-07-01T11:30:27.414Z,91.00
2018-07-01T11:32:55.762Z,90.60
2018-07-01T11:35:26.645Z,90.80
2018-07-01T11:37:56.912Z,90.90
2018-07-01T11:40:25.236Z,90.40
2018-07-01T11:42:53.924Z,91.20
2018-07-01T11:45:24.848Z,91.10
2018-07-01T11:47:55.589Z,91.50
2018-07-01T11:53:46.919Z,92.40
2018-07-01T11:56:18.777Z,90.50
2018-07-01T11:58:47.486Z,92.50
2018-07-01T12:01:15.953Z,91.20
2018-07-01T12:03:45.138Z,92.30
2018-07-01T12:06:15.632Z,90.90
2018-07-01T12:08:44.330Z,92.60
2018-07-01T12:16:09.317Z,90.90
2018-07-01T12:18:38.208Z,92.00
2018-07-01T12:21:07.079Z,93.50
2018-07-01T12:23:36.921Z,91.70
2018-07-01T12:28:37.031Z,91.70
2018-07-01T12:31:05.705Z,91.90
2018-07-01T12:33:34.410Z,92.40
2018-07-01T12:36:03.190Z,91.60
2018-07-01T12:38:34.041Z,92.30
2018-07-01T12:41:03.426Z,92.40
2018-07-01T12:43:31.848Z,92.80
2018-07-01T12:46:00.305Z,92.80
2018-07-01T12:48:29.083Z,92.40
2018-07-01T12:51:00.805Z,93.10
2018-07-01T12:53:38.175Z,92.80
2018-07-01T12:56:36.041Z,94.40
2018-07-01T12:59:11.879Z,93.40
2018-07-01T13:01:43.287Z,93.10
2018-07-01T13:04:11.626Z,92.60
2018-07-01T13:06:43.837Z,92.40
2018-07-01T13:09:13.473Z,92.70
2018-07-01T13:11:42.938Z,92.80
2018-07-01T13:14:11.789Z,93.50
2018-07-01T13:16:40.953Z,93.20
2018-07-01T13:19:10.656Z,92.50
2018-07-01T13:24:10.948Z,93.10
2018-07-01T13:26:40.667Z,93.70
2018-07-01T13:29:09.743Z,92.40
2018-07-01T13:31:38.822Z,93.30
2018-07-01T13:34:09.073Z,92.90
2018-07-01T13:36:38.678Z,93.30
2018-07-01T13:39:09.921Z,92.10
2018-07-01T13:41:38.385Z,93.40
2018-07-01T13:44:08.278Z,92.70
2018-07-01T13:46:38.618Z,92.30
2018-07-01T13:49:33.895Z,93.10
2018-07-01T13:52:07.375Z,93.10
2018-07-01T13:54:37.456Z,92.70
2018-07-01T13:57:06.194Z,92.80
2018-07-01T14:00:01.611Z,93.60
2018-07-01T14:02:30.365Z,93.40
2018-07-01T14:04:58.836Z,93.20
2018-07-01T14:07:31.479Z,92.80
2018-07-01T14:10:28.152Z,92.00
2018-07-01T14:12:58.238Z,92.60
2018-07-01T14:15:33.389Z,92.20
2018-07-01T14:20:40.635Z,92.70
2018-07-01T14:23:10.578Z,92.00
2018-07-01T14:25:39.476Z,92.70
2018-07-01T14:28:09.158Z,92.60
2018-07-01T14:30:42.103Z,92.60
2018-07-01T14:33:20.763Z,92.70
2018-07-01T14:35:49.272Z,92.90
2018-07-01T14:38:43.161Z,93.00
2018-07-01T14:41:12.598Z,93.30
2018-07-01T14:43:42.657Z,93.40
2018-07-01T14:46:11.854Z,93.10
2018-07-01T14:48:40.501Z,93.10
2018-07-01T14:51:21.408Z,92.50
2018-07-01T14:53:51.609Z,92.50
2018-07-01T14:56:19.988Z,93.30
2018-07-01T14:59:01.387Z,93.10
2018-07-01T15:01:37.616Z,93.40
2018-07-01T15:04:08.721Z,92.20
2018-07-01T15:06:37.441Z,93.00
2018-07-01T15:09:09.859Z,92.30
2018-07-01T15:11:39.013Z,93.00
2018-07-01T15:14:13.054Z,92.30
2018-07-01T15:16:41.656Z,93.00
2018-07-01T15:19:10.001Z,92.30
2018-07-01T15:21:40.371Z,93.20
2018-07-01T15:24:09.065Z,91.60
2018-07-01T15:26:37.421Z,91.70
2018-07-01T15:29:06.789Z,92.50
2018-07-01T15:31:35.211Z,91.40
2018-07-01T15:34:04.039Z,91.10
2018-07-01T15:36:32.724Z,91.50
2018-07-01T15:39:01.353Z,92.50
2018-07-01T15:41:29.708Z,92.20
2018-07-01T15:43:58.465Z,91.30
2018-07-01T15:46:26.927Z,91.70
2018-07-01T15:48:55.351Z,91.00
2018-07-01T15:51:24.937Z,91.20
2018-07-01T15:53:54.558Z,91.30
2018-07-01T15:56:22.941Z,91.00
2018-07-01T16:04:29.303Z,90.90
2018-07-01T16:06:58.781Z,91.10
2018-07-01T16:09:27.768Z,91.30
2018-07-01T16:11:56.695Z,90.80
2018-07-01T16:14:25.726Z,89.90
2018-07-01T16:16:59.987Z,90.10
2018-07-01T16:19:58.342Z,90.00
2018-07-01T16:22:27.224Z,90.50
2018-07-01T16:25:01.337Z,90.40
2018-07-01T16:27:35.477Z,90.30
2018-07-01T16:30:05.894Z,90.00
2018-07-01T16:32:36.881Z,89.50
2018-07-01T16:35:05.791Z,89.20
2018-07-01T16:37:34.773Z,90.10
2018-07-01T16:40:03.382Z,88.70
2018-07-01T16:42:32.292Z,89.40
2018-07-01T16:45:03.882Z,88.90
2018-07-01T16:47:34.140Z,88.40
2018-07-01T16:50:02.833Z,89.90
2018-07-01T16:55:39.321Z,87.20
2018-07-01T16:58:08.143Z,89.60
2018-07-01T17:00:37.021Z,88.60
2018-07-01T17:03:09.103Z,88.80
2018-07-01T17:08:08.800Z,88.90
2018-07-01T17:10:37.211Z,89.40
2018-07-01T17:13:06.331Z,89.00
2018-07-01T17:18:43.669Z,87.80
2018-07-01T17:21:20.748Z,90.20
2018-07-01T17:24:04.478Z,88.10
2018-07-01T17:26:38.895Z,87.30
2018-07-01T17:29:08.597Z,87.50
2018-07-01T17:31:42.980Z,88.50
2018-07-01T17:34:12.577Z,89.20
2018-07-01T17:36:43.077Z,88.40
2018-07-01T17:39:13.013Z,87.70
2018-07-01T17:41:42.256Z,88.30
2018-07-01T17:44:11.695Z,88.40
2018-07-01T17:46:41.316Z,87.90
2018-07-01T17:49:10.818Z,88.00
2018-07-01T17:51:41.068Z,88.40
2018-07-01T17:54:10.968Z,88.50
2018-07-01T17:59:09.350Z,89.30
2018-07-01T18:01:38.981Z,89.60
2018-07-01T18:04:08.095Z,90.60
2018-07-01T18:06:37.917Z,90.30
2018-07-01T18:09:09.221Z,90.90
2018-07-01T18:11:39.599Z,92.50
2018-07-01T18:14:10.008Z,93.00
2018-07-01T18:16:43.030Z,94.20
2018-07-01T18:19:13.983Z,93.30
2018-07-01T18:21:58.614Z,93.40
2018-07-01T18:24:42.855Z,93.20
2018-07-01T18:26:44.778Z,93.20
2018-07-01T18:29:18.699Z,93.20
2018-07-01T18:31:44.642Z,92.40
2018-07-01T18:34:13.972Z,94.00
2018-07-01T18:36:43.941Z,94.10
2018-07-01T18:39:13.140Z,95.80
2018-07-01T18:41:42.312Z,92.90
2018-07-01T18:44:16.540Z,94.50
2018-07-01T18:46:46.081Z,92.60
2018-07-01T18:49:15.741Z,94.70
2018-07-01T18:51:51.505Z,94.50
2018-07-01T18:54:21.233Z,94.00
2018-07-01T18:56:51.039Z,94.60
2018-07-01T18:59:20.438Z,95.70
2018-07-01T19:01:49.509Z,96.10
2018-07-01T19:04:21.197Z,98.50
2018-07-01T19:06:53.966Z,98.90
2018-07-01T19:09:30.208Z,98.70
2018-07-01T19:15:10.392Z,99.90
2018-07-01T19:17:40.603Z,99.90
2018-07-01T19:20:09.986Z,99.90
2018-07-01T19:22:39.376Z,99.90
2018-07-01T19:25:13.357Z,99.90
2018-07-01T19:27:44.049Z,99.90
2018-07-01T19:30:13.875Z,99.90
2018-07-01T19:35:12.575Z,99.90
2018-07-01T19:37:42.072Z,99.90
2018-07-01T19:40:13.059Z,99.90
2018-07-01T19:42:42.552Z,99.90
2018-07-01T19:45:12.538Z,99.90
2018-07-01T19:47:43.632Z,99.90
2018-07-01T19:50:14.521Z,99.90
2018-07-01T19:52:44.213Z,99.90
2018-07-01T19:55:14.061Z,99.90
2018-07-01T19:57:43.264Z,99.90
2018-07-01T20:00:12.637Z,99.90
2018-07-01T20:02:42.474Z,99.90
2018-07-01T20:05:11.672Z,99.90
2018-07-01T20:07:41.210Z,99.90
2018-07-01T20:10:11.806Z,99.90
2018-07-01T20:12:41.172Z,99.90
2018-07-01T20:15:10.614Z,99.90
2018-07-01T20:17:40.302Z,99.90
2018-07-01T20:20:09.842Z,99.90
2018-07-01T20:22:39.201Z,99.90
2018-07-01T20:25:10.183Z,99.90
2018-07-01T20:27:39.979Z,99.90
2018-07-01T20:30:09.152Z,99.90
2018-07-01T20:32:39.772Z,99.90
2018-07-01T20:35:09.238Z,99.90
2018-07-01T20:37:38.774Z,99.90
2018-07-01T20:40:08.217Z,99.90
2018-07-01T20:42:37.581Z,99.90
2018-07-01T20:45:07.083Z,99.90
2018-07-01T20:47:36.845Z,99.90
2018-07-01T20:50:06.274Z,99.90
2018-07-01T20:52:36.157Z,99.90
2018-07-01T20:55:05.489Z,99.90
2018-07-01T20:57:34.619Z,99.90
2018-07-01T21:00:04.318Z,99.90
2018-07-01T21:02:33.593Z,99.90
2018-07-01T21:05:02.685Z,99.90
2018-07-01T21:07:32.332Z,99.90
2018-07-01T21:10:01.760Z,99.90
2018-07-01T21:12:30.947Z,99.90
2018-07-01T21:15:00.365Z,99.90
2018-07-01T21:17:30.457Z,99.90
2018-07-01T21:20:00.232Z,99.90
2018-07-01T21:22:29.701Z,99.90
2018-07-01T21:24:59.098Z,99.90
2018-07-01T21:27:28.292Z,99.90
2018-07-01T21:29:57.720Z,99.90
2018-07-01T21:32:27.057Z,99.90
2018-07-01T21:34:56.173Z,99.90
2018-07-01T21:37:25.793Z,99.90
2018-07-01T21:39:55.024Z,99.90
2018-07-01T21:42:24.382Z,99.90
2018-07-01T21:44:54.314Z,99.90
2018-07-01T21:47:23.788Z,99.90
2018-07-01T21:49:53.164Z,99.90
2018-07-01T21:52:22.830Z,99.90
2018-07-01T21:54:52.243Z,99.90
2018-07-01T21:57:21.375Z,99.90
2018-07-01T21:59:51.012Z,99.90
2018-07-01T22:02:20.819Z,99.90
2018-07-01T22:04:49.941Z,99.90
2018-07-01T22:07:19.614Z,99.90
2018-07-01T22:09:49.530Z,99.90
2018-07-01T22:12:24.087Z,99.90
2018-07-01T22:14:59.131Z,99.90
2018-07-01T22:17:28.222Z,99.90
2018-07-01T22:19:57.726Z,99.90
2018-07-01T22:22:27.272Z,99.90
2018-07-01T22:25:00.310Z,99.90
2018-07-01T22:27:30.764Z,99.90
2018-07-01T22:30:00.312Z,99.90
2018-07-01T22:32:31.683Z,99.90
2018-07-01T22:35:01.846Z,99.90
2018-07-01T22:37:31.534Z,99.90
2018-07-01T22:40:00.922Z,99.90
2018-07-01T22:42:31.727Z,99.90
2018-07-01T22:45:02.348Z,99.90
2018-07-01T22:47:31.788Z,99.90
2018-07-01T22:50:01.399Z,99.90
2018-07-01T22:52:31.433Z,99.90
2018-07-01T22:55:00.616Z,99.90
2018-07-01T22:57:29.964Z,99.90
2018-07-01T22:59:59.458Z,99.90
2018-07-01T23:02:42.866Z,99.90
2018-07-01T23:05:12.266Z,99.90
2018-07-01T23:07:41.440Z,99.90
2018-07-01T23:10:10.638Z,99.90
2018-07-01T23:12:40.391Z,99.90
2018-07-01T23:15:09.752Z,99.90
2018-07-01T23:17:39.259Z,99.90
2018-07-01T23:20:08.959Z,99.90
2018-07-01T23:22:38.274Z,99.90
2018-07-01T23:25:07.436Z,99.90
2018-07-01T23:27:37.236Z,99.90
2018-07-01T23:30:06.402Z,99.90
2018-07-01T23:32:35.732Z,99.90
2018-07-01T23:35:05.536Z,99.90
2018-07-01T23:37:34.948Z,99.90
2018-07-01T23:40:04.111Z,99.90
2018-07-01T23:42:33.524Z,99.90
2018-07-01T23:45:02.873Z,99.90
2018-07-01T23:47:32.045Z,99.90
2018-07-01T23:50:01.470Z,99.90
2018-07-01T23:52:30.789Z,99.90
2018-07-01T23:54:59.940Z,99.90
2018-07-01T23:57:29.381Z,99.90
2018-07-01T23:59:58.520Z,99.90
